Time;durP1;ratioP1;P1;durP2;ratioP2;P2;SDS_P1;SDS_P2;PMS_P1;PMS_P2;Temp;Humidity;BMP_temperature;BMP_pressure;BME280_temperature;BME280_humidity;BME280_pressure;Samples;Min_cycle;Max_cycle;Signal;HPM_P1;HPM_P2
2022/03/05 00:00:48;;;;;;;49.15;15.05;;;;;;;-2.62;100.00;96859.44;4953879;28;20150;-73
2022/03/05 00:03:14;;;;;;;41.60;11.07;;;;;;;-2.81;100.00;96849.97;4939729;28;20535;-72
2022/03/05 00:05:40;;;;;;;49.70;14.07;;;;;;;-2.79;100.00;96854.25;4938672;28;20031;-72
2022/03/05 00:08:07;;;;;;;55.20;16.55;;;;;;;-2.82;100.00;96848.34;4940015;28;20070;-72
2022/03/05 00:10:33;;;;;;;54.70;15.05;;;;;;;-2.82;100.00;96850.97;4940448;28;20046;-72
2022/03/05 00:12:59;;;;;;;47.50;12.63;;;;;;;-2.81;100.00;96844.75;4939864;28;20757;-73
2022/03/05 00:15:25;;;;;;;55.47;14.10;;;;;;;-2.73;100.00;96851.81;4940513;28;20151;-72
2022/03/05 00:17:52;;;;;;;50.80;13.32;;;;;;;-2.77;100.00;96854.91;4954436;28;20097;-72
2022/03/05 00:20:18;;;;;;;58.25;15.57;;;;;;;-2.83;100.00;96848.50;4941003;28;20027;-73
2022/03/05 00:22:45;;;;;;;53.20;14.43;;;;;;;-2.86;100.00;96841.78;4939031;28;20059;-72
2022/03/05 00:25:12;;;;;;;51.00;16.45;;;;;;;-2.86;100.00;96846.19;4938166;28;20054;-72
2022/03/05 00:27:38;;;;;;;46.58;13.73;;;;;;;-2.89;100.00;96849.13;4941285;28;20031;-72
2022/03/05 00:30:04;;;;;;;45.85;12.85;;;;;;;-2.91;100.00;96848.44;4902319;28;20090;-72
2022/03/05 00:32:29;;;;;;;23.60;6.53;;;;;;;-2.96;100.00;96854.16;300750;28;10022740;-72
2022/03/05 00:34:57;;;;;;;48.58;13.68;;;;;;;-2.93;100.00;96853.84;4938785;28;20560;-73
2022/03/05 00:37:23;;;;;;;56.92;13.55;;;;;;;-2.87;100.00;96850.63;4940893;28;20038;-73
2022/03/05 00:39:48;;;;;;;37.47;11.85;;;;;;;-2.95;100.00;96855.00;4939887;28;20146;-72
2022/03/05 00:42:14;;;;;;;36.95;11.43;;;;;;;-2.92;100.00;96845.00;4939306;28;20082;-73
2022/03/05 00:44:40;;;;;;;25.33;7.30;;;;;;;-2.94;100.00;96849.59;4938022;28;20049;-73
2022/03/05 00:47:05;;;;;;;40.92;12.20;;;;;;;-2.96;100.00;96842.84;4937294;28;20588;-73
2022/03/05 00:49:31;;;;;;;43.08;12.75;;;;;;;-2.94;100.00;96843.53;4954050;28;20031;-72
2022/03/05 00:51:56;;;;;;;53.25;12.82;;;;;;;-3.03;100.00;96847.91;4938519;28;20154;-73
2022/03/05 00:54:23;;;;;;;38.60;12.55;;;;;;;-2.98;100.00;96839.56;4970823;28;20031;-73
2022/03/05 00:56:49;;;;;;;40.13;12.15;;;;;;;-3.03;100.00;96842.66;4952743;28;20035;-73
2022/03/05 00:59:14;;;;;;;48.30;14.52;;;;;;;-3.05;100.00;96836.75;4938622;28;20497;-73
2022/03/05 01:01:41;;;;;;;43.75;11.77;;;;;;;-3.01;100.00;96839.88;4931918;28;20101;-72
2022/03/05 01:04:06;;;;;;;56.47;15.85;;;;;;;-2.98;100.00;96839.56;4937686;28;20054;-73
2022/03/05 01:06:32;;;;;;;41.60;11.52;;;;;;;-3.01;100.00;96832.84;4939612;28;20039;-73
2022/03/05 01:08:59;;;;;;;57.95;15.32;;;;;;;-2.97;100.00;96834.16;4969178;28;20043;-72
2022/03/05 01:11:25;;;;;;;34.00;10.20;;;;;;;-2.99;100.00;96840.53;4938919;28;20119;-73
2022/03/05 01:13:52;;;;;;;58.38;14.25;;;;;;;-2.98;100.00;96837.78;4938604;28;20138;-73
2022/03/05 01:16:17;;;;;;;50.60;14.00;;;;;;;-2.99;100.00;96830.91;4937256;28;20023;-74
2022/03/05 01:18:43;;;;;;;44.10;14.45;;;;;;;-3.05;100.00;96822.84;4936467;28;20043;-73
2022/03/05 01:21:10;;;;;;;45.05;13.65;;;;;;;-3.08;100.00;96826.59;4936451;28;20507;-74
2022/03/05 01:23:35;;;;;;;46.47;14.52;;;;;;;-3.13;100.00;96827.03;4953564;28;20166;-73
2022/03/05 01:26:01;;;;;;;41.33;13.27;;;;;;;-3.16;100.00;96824.75;4953171;28;20038;-72
2022/03/05 01:28:27;;;;;;;43.95;13.00;;;;;;;-3.17;100.00;96814.44;4936658;28;20031;-73
2022/03/05 01:30:52;;;;;;;38.10;13.07;;;;;;;-3.21;100.00;96820.94;4936909;28;20047;-72
2022/03/05 01:33:18;;;;;;;34.05;11.00;;;;;;;-3.30;100.00;96808.78;4937696;28;20190;-73
2022/03/05 01:35:45;;;;;;;41.67;12.63;;;;;;;-3.24;100.00;96816.84;4969456;28;20049;-72
2022/03/05 01:38:11;;;;;;;42.78;11.88;;;;;;;-3.29;100.00;96816.47;4951808;28;20063;-72
2022/03/05 01:40:36;;;;;;;44.67;12.27;;;;;;;-3.26;100.00;96813.56;4953655;28;20041;-73
2022/03/05 01:43:02;;;;;;;35.28;11.23;;;;;;;-3.25;100.00;96825.66;4938412;28;20846;-73
2022/03/05 01:45:28;;;;;;;41.05;12.27;;;;;;;-3.30;100.00;96820.06;4936227;28;20039;-72
2022/03/05 01:47:53;;;;;;;41.63;12.95;;;;;;;-3.31;100.00;96805.34;4951983;28;20039;-73
2022/03/05 01:50:19;;;;;;;43.55;12.10;;;;;;;-3.32;100.00;96805.50;4938460;28;20038;-72
2022/03/05 01:52:44;;;;;;;33.60;11.55;;;;;;;-3.32;100.00;96805.50;4953796;28;20046;-72
2022/03/05 01:55:12;;;;;;;39.85;12.38;;;;;;;-3.32;100.00;96811.56;4937899;28;20039;-72
2022/03/05 01:57:38;;;;;;;40.83;12.15;;;;;;;-3.39;100.00;96816.56;4939102;28;20996;-72
2022/03/05 02:00:05;;;;;;;44.20;13.18;;;;;;;-3.43;100.00;96814.41;4951335;28;20038;-72
2022/03/05 02:02:37;;;;;;;38.58;11.40;;;;;;;-3.44;100.00;96816.19;4939332;28;20325;-75
2022/03/05 02:05:04;;;;;;;51.78;13.10;;;;;;;-3.41;100.00;96830.78;4971258;28;20047;-75
2022/03/05 02:07:30;;;;;;;49.15;14.43;;;;;;;-3.45;100.00;96826.81;4941745;28;20616;-74
2022/03/05 02:09:56;;;;;;;46.85;15.15;;;;;;;-3.42;100.00;96824.75;4973019;28;20126;-76
2022/03/05 02:12:29;;;;;;;36.42;11.30;;;;;;;-3.52;100.00;96818.75;4937005;28;20438;-75
2022/03/05 02:14:54;;;;;;;38.05;12.07;;;;;;;-3.51;100.00;96816.97;4958118;28;20738;-76
2022/03/05 02:17:20;;;;;;;34.35;9.18;;;;;;;-3.54;100.00;96815.47;4942903;28;20031;-76
2022/03/05 02:19:45;;;;;;;46.78;14.20;;;;;;;-3.50;100.00;96821.22;4975440;28;20051;-76
2022/03/05 02:22:12;;;;;;;50.83;13.35;;;;;;;-3.58;100.00;96810.69;4941933;28;20055;-76
2022/03/05 02:24:39;;;;;;;42.90;12.63;;;;;;;-3.58;100.00;96824.63;4943618;28;20031;-75
2022/03/05 02:27:06;;;;;;;25.05;9.15;;;;;;;-3.59;100.00;96815.09;4957677;28;20035;-75
2022/03/05 02:29:33;;;;;;;37.03;11.95;;;;;;;-3.61;100.00;96814.44;4943026;28;20042;-76
2022/03/05 02:31:58;;;;;;;56.70;13.30;;;;;;;-3.56;100.00;96812.19;4939808;28;20043;-75
2022/03/05 02:34:24;;;;;;;44.33;12.82;;;;;;;-3.60;100.00;96816.06;4943422;28;20071;-76
2022/03/05 02:36:50;;;;;;;35.50;9.77;;;;;;;-3.62;100.00;96825.88;4942213;28;20039;-75
2022/03/05 02:39:16;;;;;;;45.50;13.18;;;;;;;-3.62;100.00;96822.44;4955961;28;20519;-75
2022/03/05 02:41:42;;;;;;;43.85;10.90;;;;;;;-3.59;100.00;96822.13;4958456;28;20027;-75
2022/03/05 02:44:09;;;;;;;42.70;11.80;;;;;;;-3.58;100.00;96824.63;4973335;28;20031;-76
2022/03/05 02:46:36;;;;;;;38.65;11.40;;;;;;;-3.59;100.00;96824.75;4975612;28;20035;-75
2022/03/05 02:49:03;;;;;;;44.20;12.52;;;;;;;-3.65;100.00;96824.41;4942769;28;20436;-75
2022/03/05 02:51:29;;;;;;;34.10;11.27;;;;;;;-3.62;100.00;96825.88;4959424;28;20259;-76
2022/03/05 02:53:55;;;;;;;43.28;13.50;;;;;;;-3.59;100.00;96825.56;4958726;28;20085;-75
2022/03/05 02:56:21;;;;;;;41.92;11.57;;;;;;;-3.64;100.00;96825.22;4959857;28;20661;-76
2022/03/05 02:58:46;;;;;;;35.83;11.27;;;;;;;-3.68;100.00;96827.28;4943110;28;20051;-75
2022/03/05 03:01:12;;;;;;;49.45;13.77;;;;;;;-3.69;100.00;96830.88;4942383;28;20436;-76
2022/03/05 03:03:38;;;;;;;42.28;12.73;;;;;;;-3.67;100.00;96825.50;4940528;29;20467;-75
2022/03/05 03:06:03;;;;;;;43.55;13.32;;;;;;;-3.74;100.00;96830.50;4944524;28;20031;-76
2022/03/05 03:08:29;;;;;;;40.15;13.30;;;;;;;-3.69;100.00;96833.50;4958443;28;20050;-76
2022/03/05 03:10:55;;;;;;;43.33;13.95;;;;;;;-3.64;100.00;96827.81;4945056;28;20027;-76
2022/03/05 03:13:20;;;;;;;32.88;10.07;;;;;;;-3.66;100.00;96830.59;4941616;29;20126;-75
2022/03/05 03:15:46;;;;;;;30.88;10.73;;;;;;;-3.69;100.00;96823.03;4942619;28;20134;-76
2022/03/05 03:18:11;;;;;;;32.05;11.60;;;;;;;-3.74;100.00;96822.66;4954844;28;20642;-75
2022/03/05 03:20:37;;;;;;;38.40;12.35;;;;;;;-3.69;100.00;96820.41;4975510;28;20062;-75
2022/03/05 03:23:02;;;;;;;44.88;12.93;;;;;;;-3.70;100.00;96831.03;4943113;28;20222;-75
2022/03/05 03:25:28;;;;;;;40.67;12.23;;;;;;;-3.69;100.00;96830.06;4959320;28;20154;-75
2022/03/05 03:27:53;;;;;;;44.20;14.30;;;;;;;-3.70;100.00;96828.44;4942958;28;20043;-76
2022/03/05 03:30:19;;;;;;;44.67;14.95;;;;;;;-3.70;100.00;96834.47;4942203;28;20098;-75
2022/03/05 03:32:46;;;;;;;36.95;10.38;;;;;;;-3.73;100.00;96832.16;4957266;28;20356;-76
2022/03/05 03:35:13;;;;;;;49.63;11.15;;;;;;;-3.72;100.00;96833.00;4943771;28;20066;-75
2022/03/05 03:37:40;;;;;;;29.45;11.35;;;;;;;-3.70;100.00;96826.63;4944619;28;20046;-76
2022/03/05 03:40:09;;;;;;;34.80;9.82;;;;;;;-3.68;100.00;96831.69;4957135;28;20039;-76
2022/03/05 03:42:35;;;;;;;44.15;13.40;;;;;;;-3.69;100.00;96835.28;4944445;28;20066;-75
2022/03/05 03:45:02;;;;;;;33.70;11.10;;;;;;;-3.78;100.00;96826.56;4943442;28;20069;-76
2022/03/05 03:47:27;;;;;;;40.22;13.23;;;;;;;-3.84;100.00;96829.78;4954262;28;20035;-75
2022/03/05 03:49:53;;;;;;;33.75;10.63;;;;;;;-3.85;100.00;96825.50;4954214;28;20603;-75
2022/03/05 03:52:19;;;;;;;42.40;13.32;;;;;;;-3.79;100.00;96832.75;4942139;28;20553;-74
2022/03/05 03:54:46;;;;;;;40.67;12.68;;;;;;;-3.80;100.00;96825.06;4954859;28;20037;-75
2022/03/05 03:57:12;;;;;;;34.97;11.85;;;;;;;-3.83;100.00;96830.59;4969727;28;20062;-74
2022/03/05 03:59:38;;;;;;;37.53;10.82;;;;;;;-3.79;100.00;96829.34;4938353;28;20166;-75
2022/03/05 04:02:05;;;;;;;39.10;13.00;;;;;;;-3.84;100.00;96832.38;4952755;28;20051;-73
2022/03/05 04:04:31;;;;;;;53.25;12.52;;;;;;;-3.84;100.00;96834.19;4940503;28;20074;-72
2022/03/05 04:09:42;;;;;;;38.92;12.73;;;;;;;-3.85;100.00;96835.97;4953627;28;20126;-72
2022/03/05 04:12:08;;;;;;;41.17;13.32;;;;;;;-3.83;100.00;96830.59;4939153;28;20275;-72
2022/03/05 04:14:35;;;;;;;36.15;12.35;;;;;;;-3.85;100.00;96840.38;4940729;28;20073;-72
2022/03/05 04:17:00;;;;;;;28.33;10.65;;;;;;;-3.89;100.00;96847.72;4953449;28;20035;-72
2022/03/05 04:19:26;;;;;;;41.25;13.57;;;;;;;-3.83;100.00;96841.88;4937878;28;20034;-72
2022/03/05 04:21:51;;;;;;;45.35;13.85;;;;;;;-3.87;100.00;96840.53;4939866;28;20058;-72
2022/03/05 04:24:17;;;;;;;50.72;15.32;;;;;;;-3.96;100.00;96841.44;4940117;28;20035;-75
2022/03/05 04:26:43;;;;;;;44.55;12.95;;;;;;;-3.89;100.00;96849.47;4941211;28;20031;-75
2022/03/05 04:29:08;;;;;;;36.03;11.73;;;;;;;-3.96;100.00;96846.66;4954912;28;20039;-75
2022/03/05 04:31:34;;;;;;;41.13;11.48;;;;;;;-4.00;100.00;96840.91;4938414;28;20045;-74
2022/03/05 04:34:00;;;;;;;51.05;13.75;;;;;;;-4.02;100.00;96844.63;4939283;28;20690;-75
2022/03/05 04:36:25;;;;;;;41.00;12.57;;;;;;;-4.07;100.00;96845.06;4950389;28;20035;-74
2022/03/05 04:38:51;;;;;;;48.15;13.52;;;;;;;-4.11;100.00;96848.16;4953242;28;20042;-75
2022/03/05 04:41:17;;;;;;;37.78;12.02;;;;;;;-4.05;100.00;96850.16;4971342;28;20519;-75
2022/03/05 04:43:42;;;;;;;46.22;13.18;;;;;;;-4.14;100.00;96848.41;4954658;28;20065;-75
2022/03/05 04:46:08;;;;;;;44.90;13.05;;;;;;;-4.11;100.00;96854.19;4939999;28;20608;-75
2022/03/05 04:48:33;;;;;;;37.00;12.88;;;;;;;-4.08;100.00;96853.88;4939329;28;20601;-75
2022/03/05 04:50:58;;;;;;;36.95;11.32;;;;;;;-4.09;100.00;96848.81;4939568;28;20759;-74
2022/03/05 04:53:24;;;;;;;48.05;13.85;;;;;;;-4.11;100.00;96853.38;4938518;29;20074;-75
2022/03/05 04:55:50;;;;;;;45.53;13.73;;;;;;;-4.09;100.00;96861.88;4970902;28;20046;-75
2022/03/05 04:58:17;;;;;;;44.17;13.07;;;;;;;-4.11;100.00;96851.56;4954496;28;20145;-74
2022/03/05 05:00:43;;;;;;;41.47;13.43;;;;;;;-4.03;100.00;96863.91;4940753;28;20031;-75
2022/03/05 05:03:08;;;;;;;45.83;14.15;;;;;;;-4.06;100.00;96864.19;4939936;28;20692;-75
2022/03/05 05:05:33;;;;;;;36.00;11.80;;;;;;;-4.11;100.00;96863.81;4939715;28;20138;-74
2022/03/05 05:07:59;;;;;;;48.03;14.35;;;;;;;-4.08;100.00;96860.91;4938022;28;20113;-75
2022/03/05 05:10:25;;;;;;;37.40;12.20;;;;;;;-4.06;100.00;96869.41;4954312;28;20035;-75
2022/03/05 05:12:51;;;;;;;44.47;13.10;;;;;;;-4.06;100.00;96874.66;4970448;28;20102;-73
2022/03/05 05:15:16;;;;;;;42.83;13.02;;;;;;;-4.02;100.00;96873.41;4940274;28;20043;-74
2022/03/05 05:17:42;;;;;;;40.22;12.40;;;;;;;-4.05;100.00;96873.66;4952699;28;20097;-75
2022/03/05 05:20:08;;;;;;;46.25;14.80;;;;;;;-4.06;100.00;96882.50;4937316;28;20134;-75
2022/03/05 05:22:35;;;;;;;53.05;16.35;;;;;;;-4.10;100.00;96879.34;4954278;28;20090;-74
2022/03/05 05:25:01;;;;;;;35.80;13.43;;;;;;;-4.11;100.00;96875.09;4935989;28;20696;-74
2022/03/05 05:27:26;;;;;;;41.13;12.10;;;;;;;-4.11;100.00;96876.91;4936910;28;20032;-71
2022/03/05 05:29:52;;;;;;;39.00;12.43;;;;;;;-4.14;100.00;96874.56;4936721;28;20063;-72
2022/03/05 05:32:19;;;;;;;46.67;14.05;;;;;;;-4.04;100.00;96888.41;4937128;28;20058;-72
2022/03/05 05:34:45;;;;;;;26.23;9.48;;;;;;;-4.01;100.00;96880.25;4937597;28;20737;-72
2022/03/05 05:37:12;;;;;;;32.05;11.75;;;;;;;-4.04;100.00;96881.41;4939152;28;20039;-72
2022/03/05 05:39:37;;;;;;;45.65;15.30;;;;;;;-4.01;100.00;96883.69;4937263;28;20113;-72
2022/03/05 05:42:04;;;;;;;34.17;11.73;;;;;;;-3.99;100.00;96884.38;4930169;28;20035;-72
2022/03/05 05:44:30;;;;;;;32.50;10.82;;;;;;;-4.01;100.00;96885.50;4953149;28;20035;-71
2022/03/05 05:46:55;;;;;;;30.90;11.50;;;;;;;-4.05;100.00;96890.19;4937563;28;20038;-72
2022/03/05 05:49:21;;;;;;;43.15;13.20;;;;;;;-4.08;100.00;96887.06;4952633;28;20042;-71
2022/03/05 05:51:46;;;;;;;46.83;14.05;;;;;;;-4.09;100.00;96888.84;4939600;28;20075;-72
2022/03/05 05:54:12;;;;;;;39.88;14.38;;;;;;;-4.14;100.00;96890.25;4937444;28;20035;-71
2022/03/05 05:56:37;;;;;;;45.90;13.65;;;;;;;-4.17;100.00;96887.94;4970658;28;20058;-71
2022/03/05 05:59:06;;;;;;;44.30;14.75;;;;;;;-4.18;100.00;96883.69;4936687;28;20054;-71
2022/03/05 06:01:32;;;;;;;35.53;12.07;;;;;;;-4.23;100.00;96882.31;4952886;28;20149;-71
2022/03/05 06:03:58;;;;;;;37.22;11.32;;;;;;;-4.15;100.00;96885.97;4950903;28;20027;-71
2022/03/05 06:06:23;;;;;;;18.70;6.30;;;;;;;-4.16;100.00;96879.94;4938021;28;20077;-72
2022/03/05 06:08:50;;;;;;;33.72;12.48;;;;;;;-4.10;100.00;96883.78;4969971;28;20043;-72
2022/03/05 06:11:15;;;;;;;40.92;12.88;;;;;;;-4.06;100.00;96890.34;4936587;28;20093;-72
2022/03/05 06:13:41;;;;;;;39.72;13.15;;;;;;;-4.05;100.00;96884.94;4969115;28;20055;-72
2022/03/05 06:16:06;;;;;;;39.65;13.20;;;;;;;-4.02;100.00;96895.13;4938333;28;20077;-72
2022/03/05 06:18:32;;;;;;;26.65;11.52;;;;;;;-4.00;100.00;96897.59;4936121;28;20031;-72
2022/03/05 06:20:58;;;;;;;35.40;10.70;;;;;;;-3.98;100.00;96900.88;4937613;28;20515;-72
2022/03/05 06:23:23;;;;;;;42.05;13.82;;;;;;;-3.93;100.00;96896.03;4954056;28;20042;-72
2022/03/05 06:25:50;;;;;;;38.20;12.90;;;;;;;-3.91;100.00;96891.47;4938583;28;20407;-72
2022/03/05 06:28:15;;;;;;;32.05;11.82;;;;;;;-3.90;100.00;96893.13;4932437;28;20031;-75
2022/03/05 06:30:41;;;;;;;33.45;12.00;;;;;;;-3.95;100.00;96880.50;4972829;28;20406;-75
2022/03/05 06:33:06;;;;;;;35.42;11.90;;;;;;;-3.92;100.00;96895.06;4933677;28;20126;-75
2022/03/05 06:35:32;;;;;;;35.92;10.90;;;;;;;-3.94;100.00;96899.63;4941491;28;20043;-76
2022/03/05 06:37:58;;;;;;;33.05;10.25;;;;;;;-3.92;100.00;96900.28;4953305;28;20039;-75
2022/03/05 06:40:23;;;;;;;32.40;11.63;;;;;;;-3.86;100.00;96899.72;4953619;28;20098;-75
2022/03/05 06:42:49;;;;;;;42.35;13.52;;;;;;;-3.88;100.00;96896.44;4951997;28;20043;-76
2022/03/05 06:45:14;;;;;;;24.17;9.73;;;;;;;-3.87;100.00;96903.28;4937893;28;20049;-76
2022/03/05 06:47:40;;;;;;;43.30;14.40;;;;;;;-3.84;100.00;96897.75;4937376;28;20042;-75
2022/03/05 06:50:10;;;;;;;35.85;12.73;;;;;;;-3.79;100.00;96892.09;4954280;28;20050;-77
2022/03/05 06:52:36;;;;;;;38.47;11.88;;;;;;;-3.78;100.00;96901.59;4941696;28;20769;-77
2022/03/05 06:55:03;;;;;;;40.08;13.25;;;;;;;-3.75;100.00;96902.09;4956097;28;20047;-77
2022/03/05 06:57:29;;;;;;;31.42;11.88;;;;;;;-3.68;100.00;96908.38;4941814;28;20038;-78
2022/03/05 06:59:54;;;;;;;36.22;12.68;;;;;;;-3.61;100.00;96907.78;4940680;28;20595;-77
2022/03/05 07:02:21;;;;;;;25.65;11.30;;;;;;;-3.54;100.00;96909.66;4956437;28;20162;-77
2022/03/05 07:04:47;;;;;;;32.70;11.43;;;;;;;-3.51;100.00;96913.75;4942141;28;20587;-77
2022/03/05 07:07:12;;;;;;;41.55;14.10;;;;;;;-3.43;100.00;96916.44;4971541;28;20042;-77
2022/03/05 07:09:38;;;;;;;32.70;12.75;;;;;;;-3.36;100.00;96907.03;4941239;28;20039;-78
2022/03/05 07:12:04;;;;;;;21.75;8.43;;;;;;;-3.35;100.00;96921.75;4957089;28;20041;-78
2022/03/05 07:14:29;;;;;;;38.33;12.88;;;;;;;-3.26;100.00;96914.81;4957226;28;20047;-77
2022/03/05 07:16:55;;;;;;;32.67;12.45;;;;;;;-3.25;100.00;96919.91;4941710;28;20145;-76
2022/03/05 07:19:21;;;;;;;26.85;11.50;;;;;;;-3.12;100.00;96922.94;4940542;28;20063;-75
2022/03/05 07:21:46;;;;;;;33.72;13.40;;;;;;;-3.10;100.00;96925.41;4953936;28;20984;-76
2022/03/05 07:24:12;;;;;;;26.30;10.40;;;;;;;-3.15;100.00;96925.88;4940406;28;20043;-76
2022/03/05 07:26:38;;;;;;;31.23;11.50;;;;;;;-3.11;100.00;96923.78;4941395;29;20099;-76
2022/03/05 07:29:03;;;;;;;36.72;12.80;;;;;;;-3.09;100.00;96929.69;4940633;28;20043;-76
2022/03/05 07:31:29;;;;;;;29.35;12.05;;;;;;;-3.05;100.00;96933.63;4939652;28;20114;-77
2022/03/05 07:33:55;;;;;;;25.25;9.13;;;;;;;-3.01;100.00;96928.91;4940717;28;20755;-76
2022/03/05 07:36:20;;;;;;;24.00;10.18;;;;;;;-2.91;100.00;96932.25;4943855;28;20050;-76
2022/03/05 07:38:46;;;;;;;29.58;12.07;;;;;;;-2.82;100.00;96928.72;4941295;28;20038;-77
2022/03/05 07:41:13;;;;;;;40.97;14.30;;;;;;;-2.70;100.00;96934.53;4956746;28;20952;-77
2022/03/05 07:43:39;;;;;;;37.25;12.48;;;;;;;-2.61;100.00;96931.81;4955985;28;20090;-77
2022/03/05 07:46:04;;;;;;;41.03;13.93;;;;;;;-2.54;100.00;96930.22;4942425;28;20122;-76
2022/03/05 07:48:30;;;;;;;35.20;13.55;;;;;;;-2.41;100.00;96929.81;4955734;28;20081;-76
2022/03/05 07:50:59;;;;;;;32.10;11.55;;;;;;;-2.32;100.00;96928.03;4973359;28;20870;-76
2022/03/05 07:53:26;;;;;;;31.48;12.10;;;;;;;-2.24;100.00;96925.47;4943875;28;20031;-76
2022/03/05 07:55:52;;;;;;;36.55;12.13;;;;;;;-2.18;100.00;96940.53;4943847;28;20039;-76
2022/03/05 07:58:17;;;;;;;25.08;10.73;;;;;;;-2.14;100.00;96936.63;4971637;28;20106;-76
2022/03/05 08:00:42;;;;;;;27.10;10.27;;;;;;;-2.04;100.00;96937.31;4956315;28;20043;-77
2022/03/05 08:03:08;;;;;;;37.33;13.50;;;;;;;-2.03;100.00;96932.91;4937137;28;20039;-77
2022/03/05 08:05:33;;;;;;;44.53;12.88;;;;;;;-1.96;100.00;96934.72;4942342;28;20074;-77
2022/03/05 08:07:59;;;;;;;41.22;14.80;;;;;;;-1.81;100.00;96940.19;4941235;28;20122;-77
2022/03/05 08:10:24;;;;;;;34.88;9.68;;;;;;;-1.81;100.00;96936.75;4939527;28;20042;-76
2022/03/05 08:12:50;;;;;;;23.42;10.27;;;;;;;-1.80;100.00;96933.16;4987373;28;20046;-77
2022/03/05 08:15:15;;;;;;;35.40;14.07;;;;;;;-1.79;100.00;96953.16;4943016;28;20027;-79
2022/03/05 08:17:58;;;;;;;29.45;12.23;;;;;;;-1.70;100.00;96954.84;4958483;28;20065;-80
2022/03/05 08:20:32;;;;;;;22.55;9.75;;;;;;;-1.64;100.00;96942.88;4941830;28;20035;-77
2022/03/05 08:22:59;;;;;;;31.88;12.75;;;;;;;-1.63;100.00;96947.13;4948272;28;20129;-78
2022/03/05 08:25:26;;;;;;;21.50;10.13;;;;;;;-1.59;100.00;96948.47;4974684;28;20078;-79
2022/03/05 08:27:51;;;;;;;17.65;7.95;;;;;;;-1.56;100.00;96956.81;4947392;28;20054;-78
2022/03/05 08:30:18;;;;;;;25.83;9.90;;;;;;;-1.52;100.00;96955.53;4940832;28;20027;-79
2022/03/05 08:32:44;;;;;;;31.73;12.20;;;;;;;-1.47;100.00;96962.94;4987294;28;20042;-79
2022/03/05 08:35:12;;;;;;;27.92;11.05;;;;;;;-1.28;100.00;96953.94;4956938;28;20027;-79
2022/03/05 08:37:39;;;;;;;15.20;8.73;;;;;;;-1.21;100.00;96954.94;4941484;28;20547;-78
2022/03/05 08:40:07;;;;;;;30.58;11.60;;;;;;;-1.08;100.00;96954.47;4944831;28;20035;-79
2022/03/05 08:42:34;;;;;;;27.85;11.38;;;;;;;-0.88;100.00;96948.69;4940922;29;20086;-79
2022/03/05 08:44:59;;;;;;;29.55;11.68;;;;;;;-0.70;100.00;96942.44;4957436;28;20106;-78
2022/03/05 08:47:25;;;;;;;25.33;10.55;;;;;;;-0.64;100.00;96947.03;4932946;28;20038;-78
2022/03/05 08:49:50;;;;;;;30.40;12.00;;;;;;;-0.57;100.00;96945.38;4972884;28;20078;-79
2022/03/05 08:52:16;;;;;;;25.00;8.88;;;;;;;-0.56;100.00;96952.28;4940368;28;20806;-76
2022/03/05 08:54:42;;;;;;;17.73;7.82;;;;;;;-0.60;100.00;96945.72;4940050;28;20035;-77
2022/03/05 08:57:09;;;;;;;20.75;9.80;;;;;;;-0.62;100.00;96951.16;4952704;28;20637;-77
2022/03/05 08:59:35;;;;;;;17.10;8.68;;;;;;;-0.58;100.00;96947.19;4936742;28;20031;-78
2022/03/05 09:02:01;;;;;;;21.13;8.80;;;;;;;-0.45;100.00;96941.44;4966668;28;20701;-77
2022/03/05 09:04:27;;;;;;;22.00;9.77;;;;;;;-0.43;100.00;96944.72;4967829;28;20134;-76
2022/03/05 09:06:53;;;;;;;31.98;11.80;;;;;;;-0.31;100.00;96940.75;4952075;28;20474;-77
2022/03/05 09:09:19;;;;;;;29.88;10.30;;;;;;;-0.18;100.00;96947.28;4936537;28;20058;-80
2022/03/05 09:11:44;;;;;;;13.70;5.95;;;;;;;-0.12;100.00;96951.88;4971395;28;20062;-78
2022/03/05 09:14:10;;;;;;;22.00;9.57;;;;;;;0.10;100.00;96956.38;4931382;28;20088;-79
2022/03/05 09:16:37;;;;;;;28.83;11.05;;;;;;;0.17;100.00;96961.78;4971472;28;20049;-78
2022/03/05 09:19:04;;;;;;;29.70;11.98;;;;;;;0.22;100.00;96955.00;4935431;28;20475;-77
2022/03/05 09:21:30;;;;;;;28.13;11.30;;;;;;;0.45;100.00;96968.22;4939537;28;20074;-78
2022/03/05 09:23:56;;;;;;;19.20;8.27;;;;;;;0.29;100.00;96965.69;4954175;28;20042;-77
2022/03/05 09:26:21;;;;;;;26.33;11.65;;;;;;;0.56;100.00;96956.50;4971512;28;20702;-78
2022/03/05 09:28:47;;;;;;;21.08;8.18;;;;;;;0.60;100.00;96952.50;4938987;28;20030;-77
2022/03/05 09:31:12;;;;;;;25.50;10.73;;;;;;;0.73;100.00;96954.59;4970210;28;20054;-78
2022/03/05 09:33:38;;;;;;;29.52;12.20;;;;;;;1.11;100.00;96956.28;4940479;28;20662;-80
2022/03/05 09:36:04;;;;;;;24.23;9.43;;;;;;;1.16;100.00;96962.81;4970789;28;20035;-79
2022/03/05 09:38:29;;;;;;;20.10;8.13;;;;;;;1.15;100.00;96948.81;4953044;28;20035;-78
2022/03/05 09:41:05;;;;;;;23.42;9.60;;;;;;;1.17;100.00;96949.50;4951577;28;20039;-76
2022/03/05 09:43:31;;;;;;;13.35;7.22;;;;;;;0.99;100.00;96948.97;4971001;28;20062;-76
2022/03/05 09:45:58;;;;;;;18.90;8.45;;;;;;;1.13;100.00;96956.09;4939694;28;20726;-76
2022/03/05 09:48:25;;;;;;;20.33;9.13;;;;;;;1.23;100.00;96958.50;4969793;28;20037;-75
2022/03/05 09:50:51;;;;;;;23.60;10.20;;;;;;;1.26;100.00;96955.50;4971014;28;20197;-77
2022/03/05 09:53:16;;;;;;;23.05;9.82;;;;;;;1.31;100.00;96956.59;4940916;28;20089;-77
2022/03/05 09:55:43;;;;;;;21.73;10.23;;;;;;;1.52;100.00;96955.09;4954933;28;20027;-78
2022/03/05 09:58:08;;;;;;;23.13;9.77;;;;;;;1.95;100.00;96949.06;4940418;28;20047;-78
2022/03/05 10:00:34;;;;;;;24.52;9.18;;;;;;;2.07;100.00;96946.75;4940657;28;20113;-77
2022/03/05 10:03:04;;;;;;;25.52;10.85;;;;;;;2.16;100.00;96943.00;4970408;28;20043;-77
2022/03/05 10:05:31;;;;;;;22.30;9.95;;;;;;;2.18;100.00;96943.69;4940293;28;20086;-77
2022/03/05 10:08:12;;;;;;;21.75;9.18;;;;;;;2.26;100.00;96942.75;4938662;28;20066;-77
2022/03/05 10:10:44;;;;;;;20.52;9.30;;;;;;;2.82;100.00;96944.81;4941823;28;20073;-79
2022/03/05 10:13:19;;;;;;;23.45;9.82;;;;;;;3.50;100.00;96944.22;4939289;28;20043;-79
2022/03/05 10:15:45;;;;;;;19.80;7.38;;;;;;;3.73;100.00;96938.63;4971305;28;20105;-78
2022/03/05 10:18:10;;;;;;;13.55;5.97;;;;;;;3.82;100.00;96944.63;4937981;28;20040;-76
2022/03/05 10:20:45;;;;;;;23.02;9.43;;;;;;;5.23;98.04;96935.97;4913992;29;20038;-75
2022/03/05 10:23:12;;;;;;;20.00;9.32;;;;;;;7.03;92.40;96939.81;4940551;28;20687;-75
2022/03/05 10:25:41;;;;;;;10.52;5.80;;;;;;;6.90;77.10;96939.88;4972072;28;20083;-76
2022/03/05 10:28:14;;;;;;;21.92;9.27;;;;;;;8.04;81.68;96930.81;4941802;28;20106;-76
2022/03/05 10:30:45;;;;;;;22.88;9.90;;;;;;;8.77;65.06;96921.97;4972060;28;20043;-76
2022/03/05 10:33:29;;;;;;;15.27;7.63;;;;;;;10.76;67.31;96924.78;4940048;28;20035;-77
2022/03/05 10:35:57;;;;;;;14.38;6.93;;;;;;;11.87;45.63;96925.94;4972822;28;20074;-75
2022/03/05 10:38:22;;;;;;;15.77;6.43;;;;;;;10.70;45.38;96920.38;4954588;28;20035;-76
2022/03/05 10:40:56;;;;;;;15.85;7.78;;;;;;;10.79;44.55;96919.75;4941363;28;20039;-75
2022/03/05 10:43:23;;;;;;;14.30;6.57;;;;;;;11.16;43.61;96919.38;4941807;28;20034;-75
2022/03/05 10:45:54;;;;;;;20.25;7.78;;;;;;;11.02;42.84;96920.72;4955078;28;20039;-75
2022/03/05 10:48:25;;;;;;;23.17;8.98;;;;;;;12.31;41.15;96917.19;4971969;28;20046;-75
2022/03/05 10:51:00;;;;;;;22.48;9.10;;;;;;;12.83;59.12;96913.00;4939758;28;20031;-76
2022/03/05 10:53:39;;;;;;;21.92;9.52;;;;;;;14.40;35.95;96907.34;4941386;28;20050;-79
2022/03/05 10:56:43;;;;;;;19.85;9.27;;;;;;;13.76;36.13;96914.72;4971303;28;20773;-76
2022/03/05 10:59:16;;;;;;;26.52;9.80;;;;;;;15.33;33.93;96901.19;4899467;29;20055;-76
2022/03/05 11:01:43;;;;;;;19.20;8.70;;;;;;;14.40;38.20;96903.84;4901683;29;20044;-77
2022/03/05 11:04:12;;;;;;;22.93;10.20;;;;;;;15.07;35.83;96902.19;4922034;28;20122;-75
2022/03/05 11:06:39;;;;;;;19.30;9.13;;;;;;;16.02;31.59;96903.34;4943478;28;20301;-76
2022/03/05 11:09:16;;;;;;;15.40;8.05;;;;;;;14.32;30.54;96890.84;4943079;28;20035;-76
2022/03/05 11:11:45;;;;;;;14.98;6.13;;;;;;;14.38;29.32;96898.69;4942866;28;20038;-76